Time;durP1;ratioP1;P1;durP2;ratioP2;P2;SDS_P1;SDS_P2;PMS_P1;PMS_P2;Temp;Humidity;BMP_temperature;BMP_pressure;BME280_temperature;BME280_humidity;BME280_pressure;Samples;Min_cycle;Max_cycle;Signal;HPM_P1;HPM_P2
2021/07/12 00:00:17;;;;;;;8.43;7.63;;;;;;;23.02;65.69;94776.84;5072940;28;20438;-85
2021/07/12 00:02:45;;;;;;;10.00;9.10;;;;;;;23.01;65.79;94774.41;5038627;28;20477;-85
2021/07/12 00:05:13;;;;;;;11.17;8.93;;;;;;;23.05;65.65;94779.13;5073238;28;20428;-85
2021/07/12 00:07:40;;;;;;;10.07;9.07;;;;;;;23.06;65.66;94779.94;5054735;28;20438;-84
2021/07/12 00:10:11;;;;;;;11.90;8.00;;;;;;;22.97;65.73;94771.31;5073138;28;20441;-85
2021/07/12 00:12:38;;;;;;;11.53;9.03;;;;;;;22.93;66.04;94777.31;5073161;28;21140;-85
2021/07/12 00:15:07;;;;;;;9.47;8.53;;;;;;;22.88;66.55;94769.09;5073088;28;20778;-85
2021/07/12 00:17:34;;;;;;;12.77;9.27;;;;;;;22.82;66.65;94774.22;5072739;28;20485;-85
2021/07/12 00:20:04;;;;;;;11.03;10.00;;;;;;;22.78;67.16;94772.13;5073417;28;20435;-85
2021/07/12 00:22:30;;;;;;;11.57;9.50;;;;;;;22.75;66.74;94772.56;5073248;28;20943;-85
2021/07/12 00:24:57;;;;;;;12.20;9.50;;;;;;;22.71;66.58;94769.47;5072843;28;20925;-85
2021/07/12 00:27:24;;;;;;;10.17;8.10;;;;;;;22.71;66.39;94776.69;5073020;28;20430;-85
2021/07/12 00:29:51;;;;;;;10.83;8.83;;;;;;;22.70;66.86;94781.19;5073257;28;20443;-85
2021/07/12 00:32:18;;;;;;;10.00;9.00;;;;;;;22.72;66.90;94784.50;5072644;28;20989;-84
2021/07/12 00:34:45;;;;;;;9.60;8.77;;;;;;;22.73;66.64;94786.13;5072412;28;20573;-84
2021/07/12 00:37:14;;;;;;;9.50;8.50;;;;;;;22.68;66.71;94783.28;5072988;28;20451;-85
2021/07/12 00:39:41;;;;;;;9.20;8.20;;;;;;;22.62;66.70;94781.44;5072791;28;20440;-85
2021/07/12 00:42:08;;;;;;;9.87;8.87;;;;;;;22.57;67.07;94786.56;5074423;28;20440;-85
2021/07/12 00:51:18;;;;;;;9.13;8.17;;;;;;;22.38;67.60;94768.66;5076175;28;20947;-85
2021/07/12 00:53:47;;;;;;;11.37;8.70;;;;;;;22.30;67.70;94769.69;5076157;28;20550;-85
2021/07/12 00:56:14;;;;;;;10.30;8.70;;;;;;;22.33;67.79;94777.31;5076240;28;20458;-85
2021/07/12 00:58:41;;;;;;;10.13;8.43;;;;;;;22.27;67.87;94771.97;5075768;28;20472;-86
2021/07/12 01:04:29;;;;;;;10.17;8.97;;;;;;;22.05;68.60;94774.00;5075307;28;20468;-85
2021/07/12 01:06:57;;;;;;;10.70;9.17;;;;;;;21.92;69.08;94769.41;5076013;28;20450;-85
2021/07/12 01:09:25;;;;;;;11.13;8.57;;;;;;;21.87;70.11;94771.88;5075593;28;20441;-85
2021/07/12 01:12:07;;;;;;;11.00;9.13;;;;;;;21.85;70.24;94771.25;5075821;28;20829;-86
2021/07/12 01:14:44;;;;;;;10.23;8.93;;;;;;;21.76;70.96;94775.13;5075634;28;20471;-85
2021/07/12 01:21:08;;;;;;;10.73;9.63;;;;;;;21.73;71.43;94773.69;5075585;28;20420;-86
2021/07/12 01:24:17;;;;;;;11.70;8.80;;;;;;;21.73;71.53;94780.88;5075543;28;20440;-85
2021/07/12 01:27:27;;;;;;;10.37;9.33;;;;;;;21.60;72.17;94777.13;5075762;28;20439;-85
2021/07/12 01:36:44;;;;;;;10.57;9.13;;;;;;;21.54;72.43;94785.94;4936160;29;20944;-85
2021/07/12 01:39:16;;;;;;;12.97;9.97;;;;;;;21.54;72.43;94780.59;4936016;29;20490;-85
2021/07/12 01:41:50;;;;;;;13.87;9.70;;;;;;;21.55;72.53;94784.91;4936032;29;20988;-85
2021/07/12 01:44:32;;;;;;;11.73;9.20;;;;;;;21.58;72.71;94784.50;4935960;29;20456;-85
2021/07/12 01:47:05;;;;;;;11.07;9.90;;;;;;;21.52;72.44;94789.84;4935909;29;20467;-85
2021/07/12 01:49:37;;;;;;;11.70;9.20;;;;;;;21.39;72.82;94785.25;4935639;29;20452;-85
2021/07/12 01:52:12;;;;;;;10.70;9.60;;;;;;;21.24;73.58;94784.59;4935718;29;20436;-85
2021/07/12 01:54:50;;;;;;;10.80;9.80;;;;;;;21.15;73.86;94788.41;4935657;29;20454;-85
2021/07/12 01:57:23;;;;;;;16.67;10.90;;;;;;;21.14;73.57;94795.59;4935789;29;20458;-85
2021/07/12 01:59:56;;;;;;;10.30;9.30;;;;;;;21.16;73.51;94803.41;4935798;29;20466;-85
2021/07/12 02:02:25;;;;;;;14.00;9.90;;;;;;;21.09;73.39;94806.00;4920017;29;20984;-85
2021/07/12 02:04:54;;;;;;;12.10;9.10;;;;;;;20.95;73.60;94810.47;4935694;29;20451;-85
2021/07/12 02:07:24;;;;;;;11.33;9.13;;;;;;;20.90;74.23;94807.56;4984227;28;20445;-85
2021/07/12 02:09:53;;;;;;;12.13;9.37;;;;;;;20.95;74.43;94801.63;5016734;28;20802;-85
2021/07/12 02:12:21;;;;;;;11.50;9.80;;;;;;;21.00;74.40;94794.69;5054595;28;20441;-85
2021/07/12 02:14:49;;;;;;;9.50;8.60;;;;;;;21.06;74.11;94794.91;5054414;28;21290;-85
2021/07/12 02:17:19;;;;;;;10.57;9.57;;;;;;;21.09;74.34;94798.00;5054533;28;20436;-85
2021/07/12 02:19:49;;;;;;;12.40;9.70;;;;;;;21.18;73.68;94793.34;5054396;28;20474;-85
2021/07/12 02:22:17;;;;;;;15.20;9.60;;;;;;;21.20;73.52;94797.47;5054641;28;20524;-85
2021/07/12 02:24:48;;;;;;;13.43;9.70;;;;;;;21.20;73.20;94800.13;5055432;28;20447;-85
2021/07/12 02:27:16;;;;;;;11.20;10.07;;;;;;;21.23;73.23;94798.91;5054653;28;20436;-85
2021/07/12 02:29:44;;;;;;;11.23;10.03;;;;;;;21.22;73.48;94799.94;5019494;28;20795;-85
2021/07/12 02:32:12;;;;;;;10.80;9.40;;;;;;;21.30;73.03;94797.13;5054544;28;20423;-85
2021/07/12 02:34:40;;;;;;;18.50;10.60;;;;;;;21.32;72.86;94803.09;5024588;28;20471;-86
2021/07/12 02:37:07;;;;;;;12.73;10.30;;;;;;;21.31;73.04;94796.09;5074291;28;20441;-85
2021/07/12 02:39:36;;;;;;;10.33;9.30;;;;;;;21.34;72.97;94801.03;5073964;28;20480;-84
2021/07/12 02:42:05;;;;;;;15.73;10.67;;;;;;;21.35;73.13;94800.03;5074236;28;20425;-85
2021/07/12 02:44:35;;;;;;;12.37;9.83;;;;;;;21.32;73.25;94795.09;5073906;28;20440;-85
2021/07/12 02:47:02;;;;;;;11.17;10.03;;;;;;;21.33;73.17;94800.22;5074176;28;20434;-85
2021/07/12 02:49:29;;;;;;;18.60;10.10;;;;;;;21.22;73.22;94794.59;5074165;28;20430;-84
2021/07/12 02:51:59;;;;;;;11.00;9.87;;;;;;;21.16;73.57;94798.91;5073667;28;20466;-85
2021/07/12 02:54:30;;;;;;;10.57;9.40;;;;;;;21.15;73.80;94796.41;5074642;28;20900;-85
2021/07/12 02:56:57;;;;;;;10.63;9.57;;;;;;;21.11;73.83;94787.16;5074454;28;20501;-85
2021/07/12 02:59:25;;;;;;;12.00;10.47;;;;;;;21.02;73.88;94784.63;5055491;28;20485;-85
2021/07/12 03:01:52;;;;;;;13.60;10.17;;;;;;;20.99;73.73;94794.88;5074052;28;20456;-85
2021/07/12 03:04:19;;;;;;;12.03;9.80;;;;;;;20.93;74.58;94793.84;5073882;28;20893;-85
2021/07/12 03:06:49;;;;;;;11.07;9.93;;;;;;;20.94;74.72;94789.31;5073437;28;20818;-85
2021/07/12 03:09:24;;;;;;;12.43;10.50;;;;;;;20.93;74.49;94787.66;5073586;28;20516;-84
2021/07/12 03:11:54;;;;;;;10.00;9.10;;;;;;;20.92;74.57;94794.84;5073880;28;20790;-84
2021/07/12 03:14:29;;;;;;;12.03;10.00;;;;;;;20.97;74.48;94788.91;5074150;28;20515;-83
2021/07/12 03:16:59;;;;;;;13.30;9.50;;;;;;;21.04;74.19;94792.44;5022357;28;20811;-85
2021/07/12 03:19:29;;;;;;;11.13;9.60;;;;;;;21.06;74.20;94792.25;5073588;28;20491;-84
2021/07/12 03:21:59;;;;;;;16.10;9.77;;;;;;;21.15;73.73;94793.75;5021796;28;20432;-85
2021/07/12 03:24:29;;;;;;;11.73;9.60;;;;;;;21.23;73.59;94802.44;5073728;28;20435;-84
2021/07/12 03:26:58;;;;;;;11.57;9.07;;;;;;;21.32;73.42;94795.91;5038562;28;20528;-85
2021/07/12 03:29:28;;;;;;;11.00;9.60;;;;;;;21.46;72.74;94799.47;5073694;28;20433;-84
2021/07/12 03:31:57;;;;;;;12.83;9.93;;;;;;;21.58;71.93;94807.72;5038486;28;20442;-85
2021/07/12 03:34:28;;;;;;;11.70;10.60;;;;;;;21.73;71.36;94797.72;5073325;28;20788;-85
2021/07/12 03:36:56;;;;;;;10.90;9.67;;;;;;;21.90;70.92;94803.50;5073216;28;20440;-85
2021/07/12 03:39:24;;;;;;;11.00;10.00;;;;;;;22.04;70.34;94796.41;5073189;28;20956;-85
2021/07/12 03:41:52;;;;;;;11.37;9.77;;;;;;;22.18;69.66;94796.19;5074499;28;20764;-85
2021/07/12 03:44:19;;;;;;;10.40;9.33;;;;;;;;;;5073241;28;20940;-85
2021/07/12 03:46:46;;;;;;;10.83;9.60;;;;;;;22.43;68.20;94796.44;5073678;28;20948;-85
2021/07/12 03:49:16;;;;;;;15.13;10.00;;;;;;;22.63;67.68;94809.00;5073610;28;20872;-85
2021/07/12 03:51:47;;;;;;;12.90;10.20;;;;;;;22.86;67.10;94810.25;5073362;28;20432;-85
2021/07/12 03:54:15;;;;;;;11.90;10.73;;;;;;;23.13;66.10;94810.19;5073500;28;20439;-85
2021/07/12 03:56:41;;;;;;;9.63;8.83;;;;;;;23.33;64.90;94805.59;5073499;28;20498;-85
2021/07/12 03:59:09;;;;;;;11.10;10.10;;;;;;;23.53;64.35;94810.09;5073289;28;20468;-85
2021/07/12 04:01:36;;;;;;;10.33;8.67;;;;;;;23.77;63.29;94812.09;5054705;28;20940;-85
2021/07/12 04:07:26;;;;;;;10.63;9.40;;;;;;;23.91;62.93;94807.47;5072086;28;20429;-85
2021/07/12 04:09:53;;;;;;;10.50;9.03;;;;;;;24.12;62.47;94806.31;5073264;28;20435;-85
2021/07/12 04:12:23;;;;;;;10.77;9.10;;;;;;;24.24;61.77;94801.91;5073220;28;20446;-85
2021/07/12 04:14:51;;;;;;;13.23;10.27;;;;;;;24.34;61.30;94808.50;5072928;28;20435;-81
2021/07/12 04:24:09;;;;;;;12.73;9.63;;;;;;;24.89;60.08;94818.59;5082404;28;20402;-83
2021/07/12 04:26:36;;;;;;;10.20;9.03;;;;;;;25.03;59.48;94817.44;5076583;28;20438;-83
2021/07/12 04:29:03;;;;;;;11.23;9.40;;;;;;;25.11;59.34;94827.91;5076786;28;20440;-85
2021/07/12 04:31:30;;;;;;;12.23;10.90;;;;;;;24.97;59.49;94824.50;5076650;28;20455;-84
2021/07/12 04:33:57;;;;;;;11.50;10.13;;;;;;;24.92;59.76;94818.97;5076384;28;20903;-84
2021/07/12 04:36:24;;;;;;;15.20;10.10;;;;;;;24.99;59.67;94822.44;5037880;28;20482;-84
2021/07/12 04:38:51;;;;;;;11.60;10.40;;;;;;;24.76;59.67;94819.50;5056199;28;20476;-83
2021/07/12 04:41:20;;;;;;;14.67;9.93;;;;;;;25.12;59.27;94821.47;5056170;28;20915;-84
2021/07/12 04:43:47;;;;;;;18.80;9.43;;;;;;;25.40;59.27;94822.84;5056300;28;20524;-84
2021/07/12 04:46:14;;;;;;;16.40;10.77;;;;;;;25.70;58.29;94818.41;5056127;28;20526;-84
2021/07/12 04:48:40;;;;;;;9.27;8.43;;;;;;;26.07;57.28;94823.75;5056200;28;20429;-84
2021/07/12 04:51:07;;;;;;;10.27;9.27;;;;;;;26.40;55.51;94824.13;5056128;28;20909;-86
2021/07/12 04:53:34;;;;;;;14.53;9.87;;;;;;;26.68;54.40;94820.00;5056737;28;20434;-84
2021/07/12 04:56:02;;;;;;;19.33;9.40;;;;;;;26.81;54.43;94822.47;5056290;28;20535;-85
2021/07/12 04:58:33;;;;;;;9.67;8.70;;;;;;;27.20;54.73;94820.19;5056839;28;20446;-86
2021/07/12 05:01:01;;;;;;;9.93;8.93;;;;;;;27.61;55.04;94830.81;5056416;28;20442;-91
2021/07/12 05:03:31;;;;;;;17.37;9.97;;;;;;;28.10;51.15;94830.47;5055798;28;20517;-81
2021/07/12 05:05:58;;;;;;;14.53;9.03;;;;;;;28.50;50.32;94823.16;5056153;28;20798;-80
2021/07/12 05:08:25;;;;;;;15.60;9.40;;;;;;;28.92;53.96;94822.84;5056149;28;20450;-81
2021/07/12 05:10:52;;;;;;;9.40;8.60;;;;;;;29.14;49.68;94820.19;5055926;28;20430;-79
2021/07/12 05:13:19;;;;;;;9.30;8.40;;;;;;;29.17;48.51;94822.41;5055603;28;20426;-80
2021/07/12 05:15:48;;;;;;;14.73;9.20;;;;;;;28.64;49.52;94819.09;5055600;28;20838;-80
2021/07/12 05:18:16;;;;;;;14.07;9.40;;;;;;;28.16;50.58;94830.34;5055870;28;20440;-82
2021/07/12 05:20:43;;;;;;;11.77;10.23;;;;;;;27.30;52.24;94823.09;5055496;28;20474;-83
2021/07/12 05:23:10;;;;;;;10.57;9.40;;;;;;;27.15;54.32;94826.25;5055436;28;20433;-81
2021/07/12 05:25:36;;;;;;;11.73;9.40;;;;;;;27.39;55.12;94822.50;5020940;28;20445;-83
2021/07/12 05:28:05;;;;;;;16.00;10.30;;;;;;;27.55;53.83;94823.66;5055212;28;20492;-83
2021/07/12 05:30:32;;;;;;;14.40;9.27;;;;;;;27.84;53.62;94829.16;5021094;28;20458;-83
2021/07/12 05:33:00;;;;;;;12.10;10.13;;;;;;;27.73;51.85;94828.91;5054604;28;20949;-81
2021/07/12 05:35:27;;;;;;;17.70;10.40;;;;;;;27.53;53.09;94825.78;5066717;28;20472;-83
2021/07/12 05:37:54;;;;;;;10.40;9.37;;;;;;;27.64;52.75;94826.84;5075529;28;20526;-83
2021/07/12 05:40:21;;;;;;;15.00;9.57;;;;;;;27.91;52.31;94825.25;5075211;28;20473;-83
2021/07/12 05:42:48;;;;;;;10.30;9.40;;;;;;;28.04;50.42;94830.34;5075152;28;20972;-83
2021/07/12 06:05:27;;;;;;;11.17;9.97;;;;;;;29.35;47.04;94830.25;5073903;28;20431;-84
2021/07/12 06:07:54;;;;;;;13.70;10.93;;;;;;;29.41;47.19;94839.25;5074657;28;20443;-84
2021/07/12 06:10:21;;;;;;;11.97;9.90;;;;;;;29.42;48.21;94846.28;5074478;28;20437;-84
2021/07/12 06:12:48;;;;;;;11.00;9.90;;;;;;;29.50;46.64;94840.50;5074632;28;20547;-83
2021/07/12 06:15:15;;;;;;;12.60;9.37;;;;;;;29.71;46.93;94836.19;5074441;28;20433;-84
2021/07/12 06:17:42;;;;;;;11.93;8.80;;;;;;;30.04;47.21;94833.38;5074337;28;20522;-84
2021/07/12 06:20:10;;;;;;;10.37;9.37;;;;;;;30.09;45.09;94835.38;5055917;28;20495;-83
2021/07/12 06:29:22;;;;;;;11.10;9.63;;;;;;;30.52;43.98;94839.88;5073384;28;20443;-84
2021/07/12 06:31:49;;;;;;;10.57;8.90;;;;;;;30.65;44.40;94853.06;5074752;28;20447;-83
2021/07/12 06:34:16;;;;;;;10.07;8.23;;;;;;;30.52;43.37;94837.19;5074140;28;20837;-87
2021/07/12 06:36:43;;;;;;;9.70;8.80;;;;;;;30.09;44.55;94851.59;5074408;28;20453;-83
2021/07/12 06:39:10;;;;;;;10.97;8.80;;;;;;;30.15;45.15;94832.44;5073511;28;20473;-84
2021/07/12 06:41:38;;;;;;;10.03;9.03;;;;;;;30.41;45.76;94847.09;5074254;28;20449;-88
2021/07/12 06:44:06;;;;;;;8.97;8.20;;;;;;;30.68;43.89;94840.91;5074255;28;20813;-85
2021/07/12 06:46:34;;;;;;;11.97;10.50;;;;;;;30.85;43.53;94840.75;5073956;28;20418;-84
2021/07/12 06:49:01;;;;;;;9.80;8.80;;;;;;;30.86;42.79;94839.69;5073998;28;20434;-83
2021/07/12 06:51:28;;;;;;;11.27;10.07;;;;;;;30.92;42.13;94838.66;5074134;28;20437;-83
2021/07/12 07:04:01;;;;;;;9.90;9.00;;;;;;;31.16;42.88;94831.84;5072843;28;20860;-83
2021/07/12 07:06:28;;;;;;;9.97;8.97;;;;;;;31.29;42.26;94833.31;5074329;28;20512;-84
2021/07/12 07:08:55;;;;;;;14.53;10.13;;;;;;;31.46;42.96;94828.53;5073495;28;20936;-83
2021/07/12 07:11:22;;;;;;;12.40;10.23;;;;;;;31.57;41.78;94832.94;5073472;28;20447;-84
2021/07/12 07:13:50;;;;;;;9.70;8.33;;;;;;;31.82;41.65;94829.59;5038980;28;20441;-83
2021/07/12 07:16:17;;;;;;;10.57;9.47;;;;;;;31.96;40.64;94835.34;5073605;28;20453;-84
2021/07/12 07:18:44;;;;;;;10.73;9.57;;;;;;;31.98;41.64;94831.28;5073604;28;21001;-84
2021/07/12 07:21:13;;;;;;;10.87;9.87;;;;;;;32.02;43.03;94831.56;5022925;28;20492;-83
2021/07/12 07:23:40;;;;;;;10.10;8.73;;;;;;;32.17;42.53;94831.63;5073562;28;20456;-84
2021/07/12 07:26:07;;;;;;;11.77;9.00;;;;;;;32.26;40.55;94827.34;5073320;28;20433;-84
2021/07/12 07:28:34;;;;;;;10.57;9.60;;;;;;;32.37;41.13;94827.34;5074098;28;20512;-84
2021/07/12 07:31:01;;;;;;;10.77;9.70;;;;;;;32.32;41.17;94825.44;5073530;28;20439;-83
2021/07/12 07:33:29;;;;;;;18.17;10.43;;;;;;;31.73;40.82;94821.13;5073268;28;20520;-83
2021/07/12 07:35:56;;;;;;;11.53;10.07;;;;;;;31.72;41.80;94821.38;5051431;28;20473;-83
2021/07/12 07:38:25;;;;;;;11.10;10.00;;;;;;;31.93;41.74;94825.00;5053493;28;20438;-83
2021/07/12 07:40:52;;;;;;;10.77;9.77;;;;;;;31.73;41.03;94818.41;5053321;28;20473;-85
2021/07/12 07:43:19;;;;;;;14.60;10.80;;;;;;;31.82;42.59;94820.63;5053092;28;20910;-84
2021/07/12 07:45:47;;;;;;;10.20;9.20;;;;;;;31.87;40.98;94812.50;5053000;28;20430;-84
2021/07/12 07:48:14;;;;;;;11.67;9.70;;;;;;;32.17;40.94;94817.25;5053344;28;20518;-83
2021/07/12 07:50:42;;;;;;;13.03;9.63;;;;;;;32.47;41.71;94820.06;5054026;28;20913;-85
2021/07/12 07:53:10;;;;;;;17.83;10.10;;;;;;;32.33;40.19;94816.22;5057399;28;20437;-84
2021/07/12 07:55:40;;;;;;;11.37;9.67;;;;;;;32.25;40.97;94819.44;5057162;28;20454;-85
2021/07/12 07:58:07;;;;;;;9.90;8.87;;;;;;;32.34;40.72;94812.41;5057456;28;20437;-84
2021/07/12 08:00:34;;;;;;;9.70;8.80;;;;;;;32.39;39.27;94822.50;5056885;28;20480;-84
2021/07/12 08:03:02;;;;;;;9.83;8.37;;;;;;;31.86;39.47;94822.53;5057182;28;20525;-83
2021/07/12 08:05:29;;;;;;;12.07;8.83;;;;;;;31.77;40.12;94813.25;5056853;28;20521;-82
2021/07/12 08:07:56;;;;;;;8.97;8.17;;;;;;;31.81;41.59;94817.09;5056823;28;20440;-82
2021/07/12 08:10:23;;;;;;;12.20;9.47;;;;;;;31.90;41.64;94814.69;5022180;28;20460;-84
2021/07/12 08:12:52;;;;;;;12.87;9.13;;;;;;;32.11;41.74;94810.16;5056794;28;20430;-84
2021/07/12 08:15:20;;;;;;;12.73;8.50;;;;;;;32.31;40.30;94812.94;5056998;28;20487;-82
2021/07/12 08:17:49;;;;;;;13.37;8.57;;;;;;;32.42;38.98;94803.75;5056945;28;20429;-83
2021/07/12 08:20:17;;;;;;;13.60;9.67;;;;;;;32.25;40.58;94806.69;5022288;28;20996;-82
2021/07/12 08:22:51;;;;;;;10.60;8.90;;;;;;;32.11;39.57;94808.25;5034898;28;20430;-83
2021/07/12 08:25:19;;;;;;;302.60;47.53;;;;;;;32.27;39.80;94809.97;5036992;28;20446;-83
2021/07/12 08:27:46;;;;;;;17.60;9.40;;;;;;;32.38;38.71;94808.06;5036550;28;20818;-84
2021/07/12 08:30:16;;;;;;;11.30;7.80;;;;;;;31.49;37.45;94810.91;5002012;28;20942;-85
2021/07/12 08:32:44;;;;;;;8.40;7.60;;;;;;;31.66;36.68;94815.09;5036434;28;20434;-82
2021/07/12 08:35:12;;;;;;;8.10;7.50;;;;;;;31.98;37.39;94808.75;5046383;28;20481;-82
2021/07/12 08:37:39;;;;;;;9.50;7.13;;;;;;;31.48;37.00;94815.50;5056319;28;20430;-82
2021/07/12 08:40:09;;;;;;;8.90;7.97;;;;;;;31.56;36.69;94811.50;5056116;28;20484;-84
2021/07/12 08:42:36;;;;;;;9.63;7.97;;;;;;;31.71;38.30;94804.28;5056444;28;20430;-82
2021/07/12 08:45:05;;;;;;;8.93;7.87;;;;;;;31.96;37.96;94809.00;5056276;28;20438;-82
2021/07/12 08:47:34;;;;;;;9.10;8.20;;;;;;;31.74;37.07;94808.34;5057243;28;20473;-82
2021/07/12 08:50:01;;;;;;;15.93;8.73;;;;;;;32.00;38.65;94801.97;5056707;28;20520;-82
2021/07/12 08:52:28;;;;;;;8.63;7.63;;;;;;;32.03;37.21;94808.75;5055949;28;20437;-82
2021/07/12 08:54:55;;;;;;;8.57;7.70;;;;;;;32.29;36.33;94807.78;5056236;28;20926;-83
2021/07/12 08:57:22;;;;;;;9.70;7.67;;;;;;;32.48;37.11;94808.13;5005262;28;20457;-84
2021/07/12 08:59:49;;;;;;;11.27;8.27;;;;;;;32.69;35.89;94803.53;5056107;28;20469;-84
2021/07/12 09:02:17;;;;;;;8.63;7.80;;;;;;;32.78;34.97;94803.81;5055802;28;20438;-83
2021/07/12 09:04:47;;;;;;;8.17;7.47;;;;;;;32.64;35.20;94806.22;5056143;28;20432;-84
2021/07/12 09:07:20;;;;;;;14.83;7.30;;;;;;;32.69;34.19;94802.72;5020934;28;20955;-84
2021/07/12 09:09:57;;;;;;;9.07;7.40;;;;;;;32.89;35.09;94803.56;5056779;28;20438;-84
2021/07/12 09:12:37;;;;;;;9.90;8.73;;;;;;;33.00;34.94;94804.41;5055574;28;20441;-83
2021/07/12 09:15:06;;;;;;;8.53;7.83;;;;;;;32.79;33.28;94803.56;5055584;28;20807;-83
2021/07/12 09:17:35;;;;;;;7.30;6.70;;;;;;;32.94;32.08;94800.84;5055271;28;20476;-83
2021/07/12 09:20:06;;;;;;;7.90;7.30;;;;;;;33.03;33.73;94806.56;5055265;28;20848;-84
2021/07/12 09:22:36;;;;;;;8.57;7.03;;;;;;;32.83;35.80;94803.84;5064499;28;20867;-82
2021/07/12 09:25:07;;;;;;;8.80;7.20;;;;;;;32.21;36.62;94810.19;5076398;28;20512;-83
2021/07/12 09:30:56;;;;;;;8.73;7.73;;;;;;;31.81;35.90;94806.25;5075478;28;20804;-83
2021/07/12 09:33:23;;;;;;;9.37;8.00;;;;;;;31.97;36.35;94801.69;5075366;28;20532;-83
2021/07/12 09:36:16;;;;;;;10.40;8.80;;;;;;;31.86;37.94;94797.31;5075991;28;20563;-85
2021/07/12 09:38:43;;;;;;;11.07;8.50;;;;;;;32.07;36.36;94800.91;5076016;28;20437;-84
2021/07/12 09:51:33;;;;;;;9.43;7.33;;;;;;;31.53;35.01;94806.59;5074500;28;20432;-85
2021/07/12 09:54:17;;;;;;;8.90;8.00;;;;;;;31.50;34.55;94798.97;5074762;28;20920;-83
2021/07/12 09:56:44;;;;;;;9.40;7.80;;;;;;;31.56;36.28;94796.03;5044980;28;20456;-84
2021/07/12 09:59:13;;;;;;;12.80;7.50;;;;;;;31.69;35.17;94800.16;5075046;28;20448;-83
2021/07/12 10:01:41;;;;;;;8.70;7.90;;;;;;;31.80;33.84;94799.16;5074955;28;20487;-82
2021/07/12 10:04:09;;;;;;;9.10;8.27;;;;;;;31.62;34.20;94797.69;5075001;28;20433;-83
2021/07/12 10:06:37;;;;;;;8.70;7.43;;;;;;;31.49;35.88;94791.91;5074867;28;20433;-84
2021/07/12 10:09:04;;;;;;;8.03;7.17;;;;;;;30.99;36.05;94798.63;5074769;28;20445;-83
2021/07/12 10:11:32;;;;;;;8.27;7.47;;;;;;;30.93;34.73;94792.31;5039669;28;20444;-83
2021/07/12 10:13:59;;;;;;;8.00;7.20;;;;;;;31.10;36.93;94803.03;5075032;28;20429;-82
2021/07/12 10:16:27;;;;;;;10.07;7.77;;;;;;;30.99;35.34;94807.56;5074308;28;20512;-82
2021/07/12 10:18:54;;;;;;;7.77;6.97;;;;;;;30.99;34.99;94807.56;5074362;28;20431;-83
2021/07/12 10:21:22;;;;;;;7.67;6.97;;;;;;;31.21;33.56;94796.63;5074654;28;20468;-83
2021/07/12 10:23:56;;;;;;;7.47;6.60;;;;;;;31.41;33.54;94791.34;5074132;28;20436;-83
2021/07/12 10:26:52;;;;;;;7.70;7.07;;;;;;;31.64;33.54;94781.97;5074153;28;20444;-84
2021/07/12 10:29:26;;;;;;;8.23;6.87;;;;;;;31.83;33.62;94776.13;5022908;28;20437;-84
2021/07/12 10:32:13;;;;;;;8.33;7.47;;;;;;;31.91;33.05;94776.41;5074105;28;20433;-83
2021/07/12 10:34:43;;;;;;;6.83;6.20;;;;;;;31.96;32.19;94768.28;5074334;28;20481;-84
2021/07/12 10:37:19;;;;;;;6.90;6.00;;;;;;;31.37;32.33;94770.44;5056997;28;20523;-83
2021/07/12 11:10:04;;;;;;;11.20;7.90;;;;;;;31.06;37.26;94764.78;5073921;28;20735;-83
2021/07/12 11:12:37;;;;;;;8.60;7.90;;;;;;;31.09;37.66;94768.88;5073987;28;20978;-83
2021/07/12 11:15:10;;;;;;;9.80;8.40;;;;;;;30.96;37.05;94774.75;5074277;28;20449;-84
2021/07/12 11:17:57;;;;;;;8.97;8.03;;;;;;;31.04;35.97;94766.94;5074233;28;20792;-81
2021/07/12 11:20:45;;;;;;;9.20;8.40;;;;;;;31.04;35.48;94768.84;5073235;28;20484;-83
2021/07/12 11:23:39;;;;;;;11.47;8.23;;;;;;;31.31;36.01;94774.19;5073729;28;20444;-83
2021/07/12 11:26:44;;;;;;;7.53;6.83;;;;;;;31.45;37.54;94764.50;5072987;28;20435;-83
2021/07/12 11:29:17;;;;;;;7.53;6.83;;;;;;;31.28;35.95;94767.41;5074133;28;20428;-85
2021/07/12 11:31:46;;;;;;;7.73;7.03;;;;;;;31.24;36.55;94760.06;5073186;28;20441;-83
2021/07/12 11:34:15;;;;;;;8.87;7.90;;;;;;;31.33;35.91;94753.88;5073866;28;20432;-84
2021/07/12 11:36:58;;;;;;;9.23;7.70;;;;;;;31.21;35.48;94755.94;5073989;28;20897;-85
2021/07/12 11:39:26;;;;;;;7.87;7.17;;;;;;;31.09;35.64;94755.31;5073853;28;20439;-84
2021/07/12 11:41:55;;;;;;;12.53;7.97;;;;;;;31.09;34.81;94748.00;5054849;28;20480;-84
2021/07/12 11:44:23;;;;;;;8.13;7.33;;;;;;;31.23;35.37;94742.97;5074092;28;20433;-83
2021/07/12 11:46:51;;;;;;;7.93;7.23;;;;;;;31.41;34.02;94734.38;5073624;28;20444;-84
2021/07/12 11:49:20;;;;;;;8.20;6.80;;;;;;;31.30;34.09;94738.13;5073980;28;20429;-85
2021/07/12 11:51:52;;;;;;;10.07;6.67;;;;;;;31.10;34.25;94737.97;5073157;28;20924;-85
2021/07/12 11:54:21;;;;;;;7.10;6.50;;;;;;;31.32;35.96;94730.53;5076465;28;20505;-85
2021/07/12 11:57:04;;;;;;;10.40;7.37;;;;;;;31.39;33.51;94733.00;5074320;28;20452;-86
2021/07/12 11:59:33;;;;;;;7.37;6.67;;;;;;;31.50;34.81;94736.56;5073162;28;20531;-85
2021/07/12 12:02:07;;;;;;;7.97;7.17;;;;;;;31.60;33.39;94736.66;5073272;28;20469;-84
2021/07/12 12:11:26;;;;;;;6.30;5.80;;;;;;;32.03;31.57;94730.03;5073000;28;20903;-85
2021/07/12 12:13:55;;;;;;;6.40;5.90;;;;;;;32.15;33.03;94725.19;5022630;28;20451;-85
2021/07/12 12:16:27;;;;;;;6.93;6.23;;;;;;;32.04;32.71;94726.22;5073038;28;20433;-85
2021/07/12 12:18:54;;;;;;;6.67;6.27;;;;;;;31.98;33.40;94727.31;5073388;28;20788;-84
2021/07/12 12:21:23;;;;;;;8.30;7.07;;;;;;;31.70;33.01;94712.25;5073458;28;21055;-85
2021/07/12 12:23:51;;;;;;;6.70;6.10;;;;;;;31.78;33.90;94725.34;5072719;28;20436;-85
2021/07/12 12:26:25;;;;;;;6.60;6.00;;;;;;;31.66;33.70;94730.16;5073047;28;20428;-85
2021/07/12 12:28:56;;;;;;;13.00;7.07;;;;;;;31.50;34.04;94712.97;5072705;28;20913;-84
2021/07/12 12:31:26;;;;;;;6.60;6.13;;;;;;;31.48;32.81;94717.84;5053626;28;20516;-85
2021/07/12 12:33:59;;;;;;;6.90;6.20;;;;;;;31.54;33.58;94726.84;5053395;28;20437;-86
2021/07/12 12:36:29;;;;;;;6.20;5.60;;;;;;;31.68;32.73;94717.94;5053511;28;20499;-86
2021/07/12 12:38:58;;;;;;;10.60;6.37;;;;;;;31.86;32.94;94718.59;5056417;28;20455;-85
2021/07/12 12:41:26;;;;;;;7.70;6.83;;;;;;;31.89;33.93;94718.06;5056288;28;20506;-85
2021/07/12 12:44:03;;;;;;;7.37;6.20;;;;;;;31.89;32.13;94713.44;5056642;28;20452;-87
2021/07/12 12:46:30;;;;;;;7.73;6.93;;;;;;;31.88;32.53;94713.72;5056416;28;20520;-85
2021/07/12 12:48:58;;;;;;;6.77;6.17;;;;;;;31.73;31.71;94711.75;5056517;28;20441;-87
2021/07/12 12:51:31;;;;;;;6.50;6.00;;;;;;;31.78;31.65;94710.94;5021913;28;20441;-86
2021/07/12 12:54:00;;;;;;;7.27;6.47;;;;;;;31.82;32.36;94702.03;5056699;28;20445;-85
2021/07/12 12:56:27;;;;;;;10.63;6.37;;;;;;;31.82;32.84;94703.94;5056409;28;20532;-85
2021/07/12 12:58:58;;;;;;;7.20;6.50;;;;;;;31.79;34.01;94707.97;5056194;28;20968;-86
2021/07/12 13:01:36;;;;;;;11.80;6.63;;;;;;;31.56;33.19;94716.56;4972913;28;20838;-85
2021/07/12 13:04:11;;;;;;;6.63;6.07;;;;;;;31.19;32.91;94709.31;5056371;28;20896;-85
2021/07/12 13:06:44;;;;;;;6.30;5.70;;;;;;;30.80;33.48;94706.88;5056292;28;20535;-86
2021/07/12 13:09:13;;;;;;;11.47;6.77;;;;;;;30.85;33.74;94713.41;5056393;28;20433;-85
2021/07/12 13:11:41;;;;;;;6.60;6.00;;;;;;;30.92;33.82;94709.38;5056011;28;20444;-85
2021/07/12 13:14:08;;;;;;;7.07;6.37;;;;;;;31.07;33.01;94692.41;5056966;28;20433;-84
2021/07/12 13:16:37;;;;;;;7.37;6.67;;;;;;;31.12;33.33;94693.25;5056001;28;20464;-86
2021/07/12 13:19:06;;;;;;;8.83;6.53;;;;;;;31.14;33.06;94698.41;5055819;28;20434;-83
2021/07/12 13:21:50;;;;;;;6.63;6.00;;;;;;;31.17;32.40;94692.47;5055960;28;20469;-83
2021/07/12 13:24:18;;;;;;;8.20;6.10;;;;;;;31.22;33.08;94688.97;5055734;28;20772;-85
2021/07/12 13:26:55;;;;;;;8.10;6.00;;;;;;;31.26;32.92;94692.81;5038662;28;20440;-86
2021/07/12 13:29:22;;;;;;;7.43;5.83;;;;;;;31.11;34.51;94688.09;5075711;28;20512;-85
2021/07/12 13:31:50;;;;;;;7.57;6.77;;;;;;;30.94;35.75;94682.84;5076058;28;20544;-85
2021/07/12 13:34:17;;;;;;;7.03;6.00;;;;;;;31.04;33.36;94684.81;5075299;28;20551;-85
2021/07/12 13:36:44;;;;;;;6.50;5.90;;;;;;;31.09;33.42;94688.34;5074378;28;20449;-85